sensor_id;sensor_type;location;lat;lon;timestamp;pressure;altitude;pressure_sealevel;temperature;humidity
72086;BME280;64750;52.134;5.424;2022-12-29T00:00:06;100126.44;;;9.66;91.96
72086;BME280;64750;52.134;5.424;2022-12-29T00:02:32;100122.66;;;9.70;91.75
72086;BME280;64750;52.134;5.424;2022-12-29T00:04:59;100105.03;;;9.72;91.51
72086;BME280;64750;52.134;5.424;2022-12-29T00:07:25;100099.78;;;9.72;91.67
72086;BME280;64750;52.134;5.424;2022-12-29T00:09:51;100102.28;;;9.74;91.32
72086;BME280;64750;52.134;5.424;2022-12-29T00:12:18;100106.50;;;9.76;91.30
72086;BME280;64750;52.134;5.424;2022-12-29T00:14:44;100090.75;;;9.76;91.17
72086;BME280;64750;52.134;5.424;2022-12-29T00:17:29;100094.13;;;9.78;90.94
72086;BME280;64750;52.134;5.424;2022-12-29T00:19:56;100096.50;;;9.81;90.85
72086;BME280;64750;52.134;5.424;2022-12-29T00:22:43;100099.25;;;9.80;90.78
72086;BME280;64750;52.134;5.424;2022-12-29T00:25:28;100079.81;;;9.82;90.56
72086;BME280;64750;52.134;5.424;2022-12-29T00:28:12;100085.81;;;9.84;90.54
72086;BME280;64750;52.134;5.424;2022-12-29T00:31:01;100078.88;;;9.83;90.44
72086;BME280;64750;52.134;5.424;2022-12-29T00:33:46;100077.09;;;9.84;90.28
72086;BME280;64750;52.134;5.424;2022-12-29T00:36:35;100067.44;;;9.84;90.44
72086;BME280;64750;52.134;5.424;2022-12-29T00:39:07;100069.03;;;9.87;90.15
72086;BME280;64750;52.134;5.424;2022-12-29T00:41:53;100068.91;;;9.89;90.06
72086;BME280;64750;52.134;5.424;2022-12-29T00:44:38;100061.16;;;9.87;89.98
72086;BME280;64750;52.134;5.424;2022-12-29T00:47:04;100063.66;;;9.89;89.87
72086;BME280;64750;52.134;5.424;2022-12-29T00:49:31;100051.25;;;9.91;89.59
72086;BME280;64750;52.134;5.424;2022-12-29T00:52:07;100038.88;;;9.93;89.51
72086;BME280;64750;52.134;5.424;2022-12-29T00:54:36;100033.63;;;9.93;89.47
72086;BME280;64750;52.134;5.424;2022-12-29T00:57:04;100031.00;;;9.93;89.41
72086;BME280;64750;52.134;5.424;2022-12-29T00:59:34;100028.38;;;9.93;89.34
72086;BME280;64750;52.134;5.424;2022-12-29T01:02:01;100031.81;;;9.93;89.10
72086;BME280;64750;52.134;5.424;2022-12-29T01:04:27;100021.44;;;9.92;89.06
72086;BME280;64750;52.134;5.424;2022-12-29T01:06:54;100012.50;;;9.94;89.46
72086;BME280;64750;52.134;5.424;2022-12-29T01:09:20;100017.75;;;9.94;89.57
72086;BME280;64750;52.134;5.424;2022-12-29T01:12:07;100012.63;;;9.93;89.63
72086;BME280;64750;52.134;5.424;2022-12-29T01:14:34;100010.94;;;9.92;89.69
72086;BME280;64750;52.134;5.424;2022-12-29T01:17:01;100004.00;;;9.91;89.51
72086;BME280;64750;52.134;5.424;2022-12-29T01:19:27;100006.63;;;9.91;89.69
72086;BME280;64750;52.134;5.424;2022-12-29T01:21:54;100004.97;;;9.90;90.23
72086;BME280;64750;52.134;5.424;2022-12-29T01:24:21;100011.16;;;9.89;90.61
72086;BME280;64750;52.134;5.424;2022-12-29T01:26:48;100002.53;;;9.87;90.83
72086;BME280;64750;52.134;5.424;2022-12-29T01:29:15;100003.59;;;9.84;90.94
72086;BME280;64750;52.134;5.424;2022-12-29T01:31:42;100004.66;;;9.81;91.63
72086;BME280;64750;52.134;5.424;2022-12-29T01:34:09;99992.59;;;9.79;91.97
72086;BME280;64750;52.134;5.424;2022-12-29T01:36:35;99991.75;;;9.78;92.06
72086;BME280;64750;52.134;5.424;2022-12-29T01:39:02;99999.84;;;9.75;92.36
72086;BME280;64750;52.134;5.424;2022-12-29T01:41:28;100010.56;;;9.72;92.42
72086;BME280;64750;52.134;5.424;2022-12-29T01:43:58;100008.06;;;9.71;92.68
72086;BME280;64750;52.134;5.424;2022-12-29T01:46:36;99986.19;;;9.70;92.95
72086;BME280;64750;52.134;5.424;2022-12-29T01:49:11;100005.53;;;9.69;92.97
72086;BME280;64750;52.134;5.424;2022-12-29T01:51:42;100011.72;;;9.68;93.17
72086;BME280;64750;52.134;5.424;2022-12-29T01:54:18;100004.69;;;9.68;93.50
72086;BME280;64750;52.134;5.424;2022-12-29T01:56:48;100001.31;;;9.66;93.42
72086;BME280;64750;52.134;5.424;2022-12-29T01:59:19;100024.84;;;9.68;93.50
72086;BME280;64750;52.134;5.424;2022-12-29T02:01:49;100005.53;;;9.69;93.35
72086;BME280;64750;52.134;5.424;2022-12-29T02:04:17;100009.94;;;9.68;93.49
72086;BME280;64750;52.134;5.424;2022-12-29T02:06:48;100021.28;;;9.69;93.54
72086;BME280;64750;52.134;5.424;2022-12-29T02:09:16;100022.94;;;9.70;93.23
72086;BME280;64750;52.134;5.424;2022-12-29T02:11:43;100002.81;;;9.71;93.23
72086;BME280;64750;52.134;5.424;2022-12-29T02:14:11;100013.31;;;9.71;93.34
72086;BME280;64750;52.134;5.424;2022-12-29T02:16:55;100017.69;;;9.70;93.27
72086;BME280;64750;52.134;5.424;2022-12-29T02:27:31;100022.00;;;9.71;93.31
72086;BME280;64750;52.134;5.424;2022-12-29T02:38:31;100018.44;;;9.72;93.02
72086;BME280;64750;52.134;5.424;2022-12-29T02:41:16;100019.19;;;9.74;92.39
72086;BME280;64750;52.134;5.424;2022-12-29T02:43:59;100000.06;;;9.72;92.31
72086;BME280;64750;52.134;5.424;2022-12-29T02:46:37;99992.41;;;9.69;92.04
72086;BME280;64750;52.134;5.424;2022-12-29T02:49:30;100006.13;;;9.73;91.60
72086;BME280;64750;52.134;5.424;2022-12-29T02:52:06;100003.44;;;9.74;91.35
72086;BME280;64750;52.134;5.424;2022-12-29T02:54:35;99996.50;;;9.73;91.38
72086;BME280;64750;52.134;5.424;2022-12-29T02:57:28;100000.81;;;9.74;91.00
72086;BME280;64750;52.134;5.424;2022-12-29T03:00:03;100010.34;;;9.75;90.89
72086;BME280;64750;52.134;5.424;2022-12-29T03:11:12;100019.38;;;9.71;90.60
72086;BME280;64750;52.134;5.424;2022-12-29T03:14:21;100013.19;;;9.72;90.77
72086;BME280;64750;52.134;5.424;2022-12-29T03:17:38;100008.06;;;9.71;90.41
72086;BME280;64750;52.134;5.424;2022-12-29T03:20:08;100007.19;;;9.70;90.55
72086;BME280;64750;52.134;5.424;2022-12-29T03:22:41;100015.06;;;9.70;90.34
72086;BME280;64750;52.134;5.424;2022-12-29T03:25:16;100014.13;;;9.71;90.24
72086;BME280;64750;52.134;5.424;2022-12-29T03:27:55;99996.69;;;9.70;90.28
72086;BME280;64750;52.134;5.424;2022-12-29T03:30:23;99994.94;;;9.71;90.17
72086;BME280;64750;52.134;5.424;2022-12-29T03:32:54;99987.88;;;9.71;90.00
72086;BME280;64750;52.134;5.424;2022-12-29T03:35:25;99985.38;;;9.69;90.05
72086;BME280;64750;52.134;5.424;2022-12-29T03:37:58;99976.75;;;9.67;89.98
72086;BME280;64750;52.134;5.424;2022-12-29T03:40:27;99979.50;;;9.66;90.00
72086;BME280;64750;52.134;5.424;2022-12-29T03:42:55;99990.94;;;9.65;89.66
72086;BME280;64750;52.134;5.424;2022-12-29T03:45:22;99999.75;;;9.64;89.93
72086;BME280;64750;52.134;5.424;2022-12-29T03:47:48;99996.28;;;9.63;89.83
72086;BME280;64750;52.134;5.424;2022-12-29T03:50:15;99995.47;;;9.63;89.68
72086;BME280;64750;52.134;5.424;2022-12-29T03:52:43;99984.13;;;9.62;89.70
72086;BME280;64750;52.134;5.424;2022-12-29T03:55:10;99985.16;;;9.60;89.85
72086;BME280;64750;52.134;5.424;2022-12-29T03:57:36;99994.09;;;9.57;89.83
72086;BME280;64750;52.134;5.424;2022-12-29T04:00:04;99995.88;;;9.57;89.59
72086;BME280;64750;52.134;5.424;2022-12-29T04:02:31;99981.84;;;9.58;89.63
72086;BME280;64750;52.134;5.424;2022-12-29T04:04:58;99987.28;;;9.55;89.51
72086;BME280;64750;52.134;5.424;2022-12-29T04:07:24;99992.53;;;9.55;89.54
72086;BME280;64750;52.134;5.424;2022-12-29T04:09:50;99981.19;;;9.54;89.59
72086;BME280;64750;52.134;5.424;2022-12-29T04:12:17;99977.00;;;9.51;89.49
72086;BME280;64750;52.134;5.424;2022-12-29T04:14:43;99997.13;;;9.51;89.22
72086;BME280;64750;52.134;5.424;2022-12-29T04:17:10;99991.06;;;9.50;89.10
72086;BME280;64750;52.134;5.424;2022-12-29T04:19:36;99995.38;;;9.51;89.07
72086;BME280;64750;52.134;5.424;2022-12-29T04:22:02;100013.72;;;9.51;88.92
72086;BME280;64750;52.134;5.424;2022-12-29T04:24:29;100011.22;;;9.50;88.89
72086;BME280;64750;52.134;5.424;2022-12-29T04:26:55;100023.38;;;9.51;88.64
72086;BME280;64750;52.134;5.424;2022-12-29T04:29:22;100027.78;;;9.50;88.51
72086;BME280;64750;52.134;5.424;2022-12-29T04:31:48;100016.34;;;9.51;88.29
72086;BME280;64750;52.134;5.424;2022-12-29T04:34:15;100026.00;;;9.51;88.15
72086;BME280;64750;52.134;5.424;2022-12-29T04:36:43;100019.91;;;9.50;87.83
72086;BME280;64750;52.134;5.424;2022-12-29T04:39:10;100018.97;;;9.51;86.99
72086;BME280;64750;52.134;5.424;2022-12-29T04:41:36;100015.41;;;9.52;86.66
72086;BME280;64750;52.134;5.424;2022-12-29T04:44:03;100022.31;;;9.53;86.34
72086;BME280;64750;52.134;5.424;2022-12-29T04:46:29;100033.66;;;9.54;86.05
72086;BME280;64750;52.134;5.424;2022-12-29T04:48:56;100033.78;;;9.52;85.66
72086;BME280;64750;52.134;5.424;2022-12-29T04:51:22;100031.16;;;9.52;85.52
72086;BME280;64750;52.134;5.424;2022-12-29T04:53:49;100042.47;;;9.53;85.15
72086;BME280;64750;52.134;5.424;2022-12-29T04:56:15;100038.91;;;9.54;85.25
72086;BME280;64750;52.134;5.424;2022-12-29T04:58:43;100044.16;;;9.54;85.24
72086;BME280;64750;52.134;5.424;2022-12-29T05:01:10;100027.56;;;9.53;85.05
72086;BME280;64750;52.134;5.424;2022-12-29T05:03:36;100043.31;;;9.53;84.89
72086;BME280;64750;52.134;5.424;2022-12-29T05:06:03;100033.03;;;9.50;84.96
72086;BME280;64750;52.134;5.424;2022-12-29T05:08:29;100053.09;;;9.51;84.49
72086;BME280;64750;52.134;5.424;2022-12-29T05:10:55;100062.63;;;9.52;84.60
72086;BME280;64750;52.134;5.424;2022-12-29T05:13:22;100048.78;;;9.50;84.66
72086;BME280;64750;52.134;5.424;2022-12-29T05:15:52;100056.66;;;9.50;84.56
72086;BME280;64750;52.134;5.424;2022-12-29T05:18:19;100058.53;;;9.48;84.70
72086;BME280;64750;52.134;5.424;2022-12-29T05:20:46;100061.13;;;9.48;84.32
72086;BME280;64750;52.134;5.424;2022-12-29T05:23:13;100064.72;;;9.47;84.38
72086;BME280;64750;52.134;5.424;2022-12-29T05:25:40;100052.56;;;9.46;83.69
72086;BME280;64750;52.134;5.424;2022-12-29T05:28:06;100062.19;;;9.46;83.69
72086;BME280;64750;52.134;5.424;2022-12-29T05:30:32;100063.88;;;9.47;83.55
72086;BME280;64750;52.134;5.424;2022-12-29T05:32:59;100069.22;;;9.45;83.76
72086;BME280;64750;52.134;5.424;2022-12-29T05:35:25;100071.84;;;9.45;83.32
72086;BME280;64750;52.134;5.424;2022-12-29T05:37:52;100056.13;;;9.45;83.23
72086;BME280;64750;52.134;5.424;2022-12-29T05:40:18;100064.91;;;9.44;83.11
72086;BME280;64750;52.134;5.424;2022-12-29T05:42:44;100079.84;;;9.44;83.70
72086;BME280;64750;52.134;5.424;2022-12-29T05:45:11;100057.06;;;9.44;83.10
72086;BME280;64750;52.134;5.424;2022-12-29T05:47:37;100047.50;;;9.43;82.93
72086;BME280;64750;52.134;5.424;2022-12-29T05:50:04;100061.47;;;9.44;83.36
72086;BME280;64750;52.134;5.424;2022-12-29T05:52:30;100057.28;;;9.41;83.62
72086;BME280;64750;52.134;5.424;2022-12-29T05:54:56;100069.53;;;9.41;83.75
72086;BME280;64750;52.134;5.424;2022-12-29T05:57:23;100070.38;;;9.41;83.27
72086;BME280;64750;52.134;5.424;2022-12-29T05:59:49;100068.72;;;9.40;83.30
72086;BME280;64750;52.134;5.424;2022-12-29T06:02:16;100084.44;;;9.40;83.14
72086;BME280;64750;52.134;5.424;2022-12-29T06:04:42;100084.44;;;9.40;83.30
72086;BME280;64750;52.134;5.424;2022-12-29T06:07:09;100088.94;;;9.38;83.46
72086;BME280;64750;52.134;5.424;2022-12-29T06:09:35;100085.50;;;9.38;83.52
72086;BME280;64750;52.134;5.424;2022-12-29T06:12:02;100095.16;;;9.37;83.48
72086;BME280;64750;52.134;5.424;2022-12-29T06:14:28;100103.03;;;9.37;83.93
72086;BME280;64750;52.134;5.424;2022-12-29T06:16:54;100089.28;;;9.33;83.92
72086;BME280;64750;52.134;5.424;2022-12-29T06:19:21;100099.00;;;9.31;83.86
72086;BME280;64750;52.134;5.424;2022-12-29T06:21:47;100100.06;;;9.29;84.27
72086;BME280;64750;52.134;5.424;2022-12-29T06:24:14;100089.78;;;9.26;84.43
72086;BME280;64750;52.134;5.424;2022-12-29T06:26:40;100099.53;;;9.24;84.20
72086;BME280;64750;52.134;5.424;2022-12-29T06:29:07;100103.94;;;9.23;84.29
72086;BME280;64750;52.134;5.424;2022-12-29T06:31:34;100097.13;;;9.21;84.38
72086;BME280;64750;52.134;5.424;2022-12-29T06:34:00;100107.69;;;9.19;84.26
72086;BME280;64750;52.134;5.424;2022-12-29T06:36:33;100120.06;;;9.17;84.68
72086;BME280;64750;52.134;5.424;2022-12-29T06:39:00;100128.22;;;9.12;85.23
72086;BME280;64750;52.134;5.424;2022-12-29T06:41:26;100113.44;;;9.11;84.99
72086;BME280;64750;52.134;5.424;2022-12-29T06:43:57;100130.19;;;9.09;84.93
72086;BME280;64750;52.134;5.424;2022-12-29T06:46:24;100142.59;;;9.07;85.33
72086;BME280;64750;52.134;5.424;2022-12-29T06:48:50;100130.31;;;9.07;85.13
72086;BME280;64750;52.134;5.424;2022-12-29T06:51:17;100123.38;;;9.06;84.89
72086;BME280;64750;52.134;5.424;2022-12-29T06:53:43;100126.00;;;9.06;84.63
72086;BME280;64750;52.134;5.424;2022-12-29T06:56:10;100113.75;;;9.07;85.00
72086;BME280;64750;52.134;5.424;2022-12-29T06:58:36;100111.03;;;9.08;84.50
72086;BME280;64750;52.134;5.424;2022-12-29T07:01:03;100117.19;;;9.07;83.50
72086;BME280;64750;52.134;5.424;2022-12-29T07:03:29;100107.47;;;9.09;83.40
72086;BME280;64750;52.134;5.424;2022-12-29T07:05:55;100115.34;;;9.09;82.62
72086;BME280;64750;52.134;5.424;2022-12-29T07:08:24;100130.94;;;9.11;81.87
72086;BME280;64750;52.134;5.424;2022-12-29T07:10:50;100141.44;;;9.11;82.00
72086;BME280;64750;52.134;5.424;2022-12-29T07:13:17;100151.16;;;9.09;82.22
72086;BME280;64750;52.134;5.424;2022-12-29T07:15:43;100122.84;;;9.01;83.10
72086;BME280;64750;52.134;5.424;2022-12-29T07:18:10;100126.81;;;8.94;83.28
72086;BME280;64750;52.134;5.424;2022-12-29T07:20:36;100128.91;;;8.89;83.71
72086;BME280;64750;52.134;5.424;2022-12-29T07:23:02;100135.28;;;8.84;84.20
72086;BME280;64750;52.134;5.424;2022-12-29T07:25:29;100150.25;;;8.82;84.50
72086;BME280;64750;52.134;5.424;2022-12-29T07:27:55;100151.47;;;8.77;84.66
72086;BME280;64750;52.134;5.424;2022-12-29T07:30:22;100147.25;;;8.74;84.55
72086;BME280;64750;52.134;5.424;2022-12-29T07:32:48;100148.22;;;8.73;85.22
72086;BME280;64750;52.134;5.424;2022-12-29T07:35:15;100150.09;;;8.71;84.93
72086;BME280;64750;52.134;5.424;2022-12-29T07:37:42;100149.34;;;8.69;85.26
72086;BME280;64750;52.134;5.424;2022-12-29T07:40:10;100171.25;;;8.68;85.35
72086;BME280;64750;52.134;5.424;2022-12-29T07:42:36;100167.22;;;8.62;85.63
72086;BME280;64750;52.134;5.424;2022-12-29T07:45:03;100167.31;;;8.61;85.90
72086;BME280;64750;52.134;5.424;2022-12-29T07:47:30;100160.22;;;8.63;86.04
72086;BME280;64750;52.134;5.424;2022-12-29T07:49:56;100161.81;;;8.65;85.65
72086;BME280;64750;52.134;5.424;2022-12-29T07:52:23;100167.88;;;8.66;85.71
72086;BME280;64750;52.134;5.424;2022-12-29T07:54:49;100159.81;;;8.69;85.63
72086;BME280;64750;52.134;5.424;2022-12-29T07:57:15;100170.41;;;8.67;85.72
72086;BME280;64750;52.134;5.424;2022-12-29T07:59:42;100158.97;;;8.68;85.40
72086;BME280;64750;52.134;5.424;2022-12-29T08:02:10;100171.97;;;8.70;85.43
72086;BME280;64750;52.134;5.424;2022-12-29T08:04:38;100158.78;;;8.72;85.00
72086;BME280;64750;52.134;5.424;2022-12-29T08:07:04;100148.22;;;8.73;85.17
72086;BME280;64750;52.134;5.424;2022-12-29T08:09:31;100167.28;;;8.75;84.78
72086;BME280;64750;52.134;5.424;2022-12-29T08:11:57;100153.16;;;8.78;84.81
72086;BME280;64750;52.134;5.424;2022-12-29T08:14:24;100154.84;;;8.79;84.43
72086;BME280;64750;52.134;5.424;2022-12-29T08:16:50;100138.94;;;8.82;83.52
72086;BME280;64750;52.134;5.424;2022-12-29T08:19:17;100146.69;;;8.83;83.65
72086;BME280;64750;52.134;5.424;2022-12-29T08:21:43;100144.78;;;8.85;83.52
72086;BME280;64750;52.134;5.424;2022-12-29T08:24:10;100142.09;;;8.87;83.28
72086;BME280;64750;52.134;5.424;2022-12-29T08:26:36;100147.25;;;8.89;83.01
72086;BME280;64750;52.134;5.424;2022-12-29T08:29:03;100138.44;;;8.90;82.69
72086;BME280;64750;52.134;5.424;2022-12-29T08:31:29;100146.31;;;8.90;82.21
72086;BME280;64750;52.134;5.424;2022-12-29T08:33:55;100140.75;;;8.94;82.09
72086;BME280;64750;52.134;5.424;2022-12-29T08:36:22;100155.44;;;8.97;81.56
72086;BME280;64750;52.134;5.424;2022-12-29T08:38:49;100153.56;;;8.99;81.07
72086;BME280;64750;52.134;5.424;2022-12-29T08:41:15;100141.19;;;9.01;80.98
72086;BME280;64750;52.134;5.424;2022-12-29T08:43:45;100140.25;;;9.02;80.61
72086;BME280;64750;52.134;5.424;2022-12-29T08:46:12;100149.91;;;9.01;81.12
72086;BME280;64750;52.134;5.424;2022-12-29T08:48:39;100160.41;;;9.01;80.33
72086;BME280;64750;52.134;5.424;2022-12-29T08:51:05;100151.50;;;9.04;80.39
72086;BME280;64750;52.134;5.424;2022-12-29T08:53:31;100168.91;;;9.05;80.42
72086;BME280;64750;52.134;5.424;2022-12-29T08:55:59;100171.59;;;9.03;80.54
72086;BME280;64750;52.134;5.424;2022-12-29T08:58:31;100165.53;;;9.03;80.96
72086;BME280;64750;52.134;5.424;2022-12-29T09:00:58;100161.22;;;9.02;81.36
72086;BME280;64750;52.134;5.424;2022-12-29T09:03:25;100166.56;;;9.00;81.88
72086;BME280;64750;52.134;5.424;2022-12-29T09:06:12;100178.75;;;9.01;81.67
72086;BME280;64750;52.134;5.424;2022-12-29T09:08:39;100169.09;;;9.02;81.81
72086;BME280;64750;52.134;5.424;2022-12-29T09:11:15;100176.00;;;9.03;81.42
72086;BME280;64750;52.134;5.424;2022-12-29T09:13:42;100176.84;;;9.03;81.55
72086;BME280;64750;52.134;5.424;2022-12-29T09:16:09;100172.47;;;9.04;81.65
72086;BME280;64750;52.134;5.424;2022-12-29T09:18:36;100172.47;;;9.04;81.93
72086;BME280;64750;52.134;5.424;2022-12-29T09:21:04;100180.22;;;9.06;81.72
72086;BME280;64750;52.134;5.424;2022-12-29T09:23:32;100192.50;;;9.05;82.13
72086;BME280;64750;52.134;5.424;2022-12-29T09:25:58;100192.50;;;9.05;82.80
72086;BME280;64750;52.134;5.424;2022-12-29T09:28:24;100191.75;;;9.03;82.92
72086;BME280;64750;52.134;5.424;2022-12-29T09:30:51;100214.56;;;9.01;83.25
72086;BME280;64750;52.134;5.424;2022-12-29T09:33:18;100198.13;;;8.99;84.13
72086;BME280;64750;52.134;5.424;2022-12-29T09:35:50;100226.19;;;8.97;84.30
72086;BME280;64750;52.134;5.424;2022-12-29T09:38:18;100228.09;;;8.95;84.62
72086;BME280;64750;52.134;5.424;2022-12-29T09:40:49;100234.44;;;8.91;84.92
72086;BME280;64750;52.134;5.424;2022-12-29T09:43:43;100246.06;;;8.86;85.74
72086;BME280;64750;52.134;5.424;2022-12-29T09:48:45;100239.72;;;8.76;86.62
72086;BME280;64750;52.134;5.424;2022-12-29T09:51:17;100265.38;;;8.71;87.17
72086;BME280;64750;52.134;5.424;2022-12-29T09:53:51;100258.44;;;8.70;87.27
72086;BME280;64750;52.134;5.424;2022-12-29T09:56:21;100254.13;;;8.69;87.68
72086;BME280;64750;52.134;5.424;2022-12-29T09:59:08;100249.84;;;8.68;87.61
72086;BME280;64750;52.134;5.424;2022-12-29T10:01:44;100258.81;;;8.64;87.89
72086;BME280;64750;52.134;5.424;2022-12-29T10:04:12;100257.88;;;8.65;88.24
72086;BME280;64750;52.134;5.424;2022-12-29T10:06:47;100269.28;;;8.64;88.41
72086;BME280;64750;52.134;5.424;2022-12-29T10:09:58;100266.88;;;8.61;88.65
72086;BME280;64750;52.134;5.424;2022-12-29T10:12:57;100285.00;;;8.64;88.65
72086;BME280;64750;52.134;5.424;2022-12-29T10:18:28;100278.09;;;8.63;88.95
72086;BME280;64750;52.134;5.424;2022-12-29T10:23:39;100286.03;;;8.61;88.88
72086;BME280;64750;52.134;5.424;2022-12-29T10:26:15;100289.50;;;8.62;88.83
72086;BME280;64750;52.134;5.424;2022-12-29T10:28:48;100305.31;;;8.60;88.98
72086;BME280;64750;52.134;5.424;2022-12-29T10:31:21;100298.19;;;8.62;89.45
72086;BME280;64750;52.134;5.424;2022-12-29T10:33:56;100313.09;;;8.62;89.48
72086;BME280;64750;52.134;5.424;2022-12-29T10:36:35;100307.09;;;8.60;89.28
72086;BME280;64750;52.134;5.424;2022-12-29T10:39:19;100328.81;;;8.62;89.79
72086;BME280;64750;52.134;5.424;2022-12-29T10:41:51;100315.72;;;8.62;89.62
72086;BME280;64750;52.134;5.424;2022-12-29T10:44:20;100322.63;;;8.63;89.84
72086;BME280;64750;52.134;5.424;2022-12-29T10:46:59;100329.53;;;8.64;90.06
72086;BME280;64750;52.134;5.424;2022-12-29T10:49:28;100332.00;;;8.67;90.12
72086;BME280;64750;52.134;5.424;2022-12-29T10:51:58;100337.91;;;8.70;90.04
72086;BME280;64750;52.134;5.424;2022-12-29T10:54:36;100342.09;;;8.73;90.44
72086;BME280;64750;52.134;5.424;2022-12-29T10:59:58;100359.31;;;8.77;89.95
72086;BME280;64750;52.134;5.424;2022-12-29T11:05:06;100380.38;;;8.76;89.75
72086;BME280;64750;52.134;5.424;2022-12-29T11:07:37;100380.28;;;8.77;90.00
72086;BME280;64750;52.134;5.424;2022-12-29T11:10:37;100375.03;;;8.77;90.19
72086;BME280;64750;52.134;5.424;2022-12-29T11:13:35;100385.53;;;8.77;89.54
72086;BME280;64750;52.134;5.424;2022-12-29T11:16:04;100391.50;;;8.79;89.90
72086;BME280;64750;52.134;5.424;2022-12-29T11:18:33;100389.63;;;8.81;89.72
72086;BME280;64750;52.134;5.424;2022-12-29T11:21:25;100402.75;;;8.81;89.72
72086;BME280;64750;52.134;5.424;2022-12-29T11:23:57;100404.44;;;8.82;90.01
72086;BME280;64750;52.134;5.424;2022-12-29T11:26:24;100401.72;;;8.84;89.78
72086;BME280;64750;52.134;5.424;2022-12-29T11:31:43;100410.13;;;8.89;89.70
72086;BME280;64750;52.134;5.424;2022-12-29T11:34:17;100411.63;;;8.93;90.10
72086;BME280;64750;52.134;5.424;2022-12-29T11:36:45;100421.94;;;8.96;89.72
72086;BME280;64750;52.134;5.424;2022-12-29T11:39:31;100423.72;;;8.96;89.83
72086;BME280;64750;52.134;5.424;2022-12-29T11:42:00;100415.03;;;8.95;89.30
72086;BME280;64750;52.134;5.424;2022-12-29T11:44:33;100421.09;;;8.96;88.80
72086;BME280;64750;52.134;5.424;2022-12-29T11:47:02;100422.97;;;8.94;88.58
72086;BME280;64750;52.134;5.424;2022-12-29T11:49:29;100431.69;;;8.94;88.81
72086;BME280;64750;52.134;5.424;2022-12-29T11:51:55;100428.50;;;8.89;88.16
72086;BME280;64750;52.134;5.424;2022-12-29T11:54:29;100439.72;;;8.91;88.38
72086;BME280;64750;52.134;5.424;2022-12-29T11:56:58;100437.00;;;8.93;88.28
72086;BME280;64750;52.134;5.424;2022-12-29T12:01:57;100433.63;;;8.91;87.71
72086;BME280;64750;52.134;5.424;2022-12-29T12:04:29;100431.97;;;8.90;87.58
72086;BME280;64750;52.134;5.424;2022-12-29T12:07:03;100441.31;;;8.94;87.36
72086;BME280;64750;52.134;5.424;2022-12-29T12:09:45;100436.25;;;8.91;87.09
72086;BME280;64750;52.134;5.424;2022-12-29T12:12:24;100437.22;;;8.90;87.11
72086;BME280;64750;52.134;5.424;2022-12-29T12:14:56;100435.31;;;8.92;87.61
72086;BME280;64750;52.134;5.424;2022-12-29T12:20:18;100451.75;;;8.79;88.07
72086;BME280;64750;52.134;5.424;2022-12-29T12:22:58;100449.44;;;8.75;88.49
72086;BME280;64750;52.134;5.424;2022-12-29T12:25:34;100460.94;;;8.72;88.31
72086;BME280;64750;52.134;5.424;2022-12-29T12:28:15;100464.38;;;8.73;88.82
72086;BME280;64750;52.134;5.424;2022-12-29T12:30:48;100459.06;;;8.74;89.27
72086;BME280;64750;52.134;5.424;2022-12-29T12:33:27;100477.97;;;8.79;89.52
72086;BME280;64750;52.134;5.424;2022-12-29T12:41:31;100461.06;;;8.85;89.74
72086;BME280;64750;52.134;5.424;2022-12-29T12:44:19;100459.28;;;8.85;89.61
72086;BME280;64750;52.134;5.424;2022-12-29T12:57:47;100474.28;;;8.98;89.45
72086;BME280;64750;52.134;5.424;2022-12-29T13:00:18;100476.91;;;8.98;88.39
72086;BME280;64750;52.134;5.424;2022-12-29T13:11:43;100476.63;;;9.02;87.88
72086;BME280;64750;52.134;5.424;2022-12-29T13:14:47;100489.66;;;9.04;87.69
72086;BME280;64750;52.134;5.424;2022-12-29T13:17:38;100492.28;;;9.04;86.90
72086;BME280;64750;52.134;5.424;2022-12-29T13:23:11;100487.69;;;9.08;87.56
72086;BME280;64750;52.134;5.424;2022-12-29T13:28:48;100492.06;;;9.07;87.07
72086;BME280;64750;52.134;5.424;2022-12-29T13:31:24;100502.56;;;9.07;86.47
72086;BME280;64750;52.134;5.424;2022-12-29T13:34:01;100498.19;;;9.08;86.52
72086;BME280;64750;52.134;5.424;2022-12-29T13:36:37;100509.50;;;9.08;86.10
72086;BME280;64750;52.134;5.424;2022-12-29T13:39:33;100514.75;;;9.08;86.08
72086;BME280;64750;52.134;5.424;2022-12-29T13:42:02;100513.06;;;9.07;86.42
72086;BME280;64750;52.134;5.424;2022-12-29T13:44:39;100508.66;;;9.08;86.57
72086;BME280;64750;52.134;5.424;2022-12-29T13:47:15;100517.47;;;9.07;86.31
72086;BME280;64750;52.134;5.424;2022-12-29T13:49:47;100511.34;;;9.06;85.86
72086;BME280;64750;52.134;5.424;2022-12-29T13:55:25;100506.13;;;9.06;85.61
72086;BME280;64750;52.134;5.424;2022-12-29T14:00:48;100506.88;;;9.08;85.58
72086;BME280;64750;52.134;5.424;2022-12-29T14:03:41;100515.56;;;9.09;85.58
72086;BME280;64750;52.134;5.424;2022-12-29T14:06:32;100513.81;;;9.09;86.02
72086;BME280;64750;52.134;5.424;2022-12-29T14:09:06;100528.63;;;9.10;85.97
72086;BME280;64750;52.134;5.424;2022-12-29T14:12:00;100527.75;;;9.10;85.92
72086;BME280;64750;52.134;5.424;2022-12-29T14:14:28;100532.16;;;9.09;85.83
72086;BME280;64750;52.134;5.424;2022-12-29T14:17:11;100534.03;;;9.07;86.36
72086;BME280;64750;52.134;5.424;2022-12-29T14:19:43;100550.09;;;9.01;86.08
72086;BME280;64750;52.134;5.424;2022-12-29T14:22:11;100551.13;;;8.98;86.29
72086;BME280;64750;52.134;5.424;2022-12-29T14:24:41;100545.41;;;8.92;86.12
72086;BME280;64750;52.134;5.424;2022-12-29T14:34:56;100545.94;;;8.82;86.21
72086;BME280;64750;52.134;5.424;2022-12-29T14:37:34;100555.06;;;8.75;85.81
72086;BME280;64750;52.134;5.424;2022-12-29T14:40:18;100564.06;;;8.71;85.86
72086;BME280;64750;52.134;5.424;2022-12-29T14:42:46;100556.38;;;8.68;86.64
72086;BME280;64750;52.134;5.424;2022-12-29T14:47:41;100560.34;;;8.59;87.36
72086;BME280;64750;52.134;5.424;2022-12-29T14:50:21;100553.34;;;8.60;87.09
72086;BME280;64750;52.134;5.424;2022-12-29T14:52:56;100556.22;;;8.55;87.22
72086;BME280;64750;52.134;5.424;2022-12-29T14:55:42;100563.41;;;8.51;87.44